This is the latest recevied weather packets stored in our database for station/object WMKM. If no packets are shown the sender has not sent any weather packets the latest 10 day(s).
| Time | Temp. | Humidity | Pressure | Rain* | Wind** | Luminosity | Snow |
|---|---|---|---|---|---|---|---|
| 1788146104 | 86° F | 66% | 759.8 mmHg | - | - | - | - |
| 1788142504 | 82° F | 83% | 759.8 mmHg | - | - | - | - |
| 1788138928 | 78° F | 88% | 759.8 mmHg | - | - | - | - |
| 1788135304 | 75° F | 10% | - | - | - | - | - |
| 1788131703 | 75° F | 10% | - | - | - | - | - |
| 1788128104 | 75° F | 94% | 759.1 mmHg | - | - | - | - |
| 1788124509 | 75° F | 94% | 759.1 mmHg | - | - | - | - |
| 1788120922 | 75° F | 94% | 759.1 mmHg | - | - | - | - |
| 1788117303 | 75° F | 94% | 759.8 mmHg | - | - | - | - |
| 1788113703 | 77° F | 83% | 759.8 mmHg | - | - | - | - |
| 1788110109 | 80° F | 94% | 759.8 mmHg | - | - | - | - |
| 1788106521 | 80° F | 94% | 759.8 mmHg | - | - | - | - |
| 1788102903 | 82° F | 88% | 759.1 mmHg | - | - | - | - |
| 1788099303 | 84° F | 83% | 759.1 mmHg | - | - | - | - |
| 1788095709 | 82° F | 88% | 758.3 mmHg | - | - | - | - |
| 1788092120 | 84° F | 83% | 757.6 mmHg | - | - | - | - |
| 1788088502 | 84° F | 83% | 756.8 mmHg | - | - | - | - |
| 1788084902 | 86° F | 74% | 756.8 mmHg | - | - | - | - |
| 1788081308 | 86° F | 74% | 756.8 mmHg | - | - | - | - |
| 1788077719 | 91° F | 62% | 756.8 mmHg | - | - | - | - |
| 1788074102 | 89° F | 66% | 757.6 mmHg | - | - | - | - |
| 1788070502 | 91° F | 62% | 758.3 mmHg | - | - | - | - |
| 1788066908 | 91° F | 66% | 758.3 mmHg | - | - | - | - |
| 1788063301 | 89° F | 70% | 759.1 mmHg | - | - | - | - |
| 1788059724 | 86° F | 79% | 759.8 mmHg | - | - | - | - |
* Rain since midnight (hover to see other rain measurements)
** Current wind speed in m/s (hover to see current wind gust speed)